Time;durP1;ratioP1;P1;durP2;ratioP2;P2;SDS_P1;SDS_P2;PMS_P1;PMS_P2;Temp;Humidity;BMP_temperature;BMP_pressure;BME280_temperature;BME280_humidity;BME280_pressure;Samples;Min_cycle;Max_cycle;Signal;HPM_P1;HPM_P2
2021/07/23 00:00:42;;;;;;;12.10;8.57;;;16.20;99.90;;;;;;5053620;28;25062;-73
2021/07/23 00:03:08;;;;;;;15.45;8.60;;;16.30;99.90;;;;;;5038203;28;25129;-75
2021/07/23 00:05:33;;;;;;;14.43;8.48;;;16.10;99.90;;;;;;5032551;28;25095;-72
2021/07/23 00:07:59;;;;;;;15.88;8.23;;;16.10;99.90;;;;;;5038424;28;25070;-72
2021/07/23 00:10:24;;;;;;;12.80;8.63;;;16.10;99.90;;;;;;5035171;28;25069;-75
2021/07/23 00:12:50;;;;;;;14.80;8.77;;;16.20;99.90;;;;;;5023675;28;25058;-71
2021/07/23 00:15:16;;;;;;;14.65;9.13;;;16.10;99.90;;;;;;5025944;28;25073;-71
2021/07/23 00:17:42;;;;;;;12.43;8.98;;;16.10;99.90;;;;;;5022820;28;25106;-74
2021/07/23 00:20:08;;;;;;;13.52;8.77;;;16.10;99.90;;;;;;5033953;28;25078;-72
2021/07/23 00:22:34;;;;;;;14.55;8.98;;;16.10;99.90;;;;;;5020874;28;25069;-74
2021/07/23 00:24:59;;;;;;;15.80;9.63;;;16.20;99.90;;;;;;5029558;28;25061;-70
2021/07/23 00:27:26;;;;;;;14.05;9.15;;;16.30;99.90;;;;;;5024683;28;25064;-72
2021/07/23 00:29:52;;;;;;;14.43;8.98;;;16.10;99.90;;;;;;5009901;28;25157;-73
2021/07/23 00:32:17;;;;;;;13.85;8.98;;;16.10;99.90;;;;;;5023368;28;25168;-72
2021/07/23 00:34:43;;;;;;;20.45;10.40;;;16.10;99.90;;;;;;5037963;28;25056;-72
2021/07/23 00:37:11;;;;;;;14.52;10.48;;;16.10;99.90;;;;;;5038535;28;25065;-70
2021/07/23 00:39:37;;;;;;;16.80;9.43;;;16.00;99.90;;;;;;5037292;28;25067;-73
2021/07/23 00:42:03;;;;;;;19.73;10.10;;;16.00;99.90;;;;;;5009765;28;25127;-72
2021/07/23 00:44:28;;;;;;;15.63;9.07;;;16.00;99.90;;;;;;5031213;28;25129;-73
2021/07/23 00:46:56;;;;;;;14.13;8.75;;;16.00;99.90;;;;;;5028621;28;25066;-73
2021/07/23 00:49:23;;;;;;;14.55;10.68;;;15.90;99.90;;;;;;5031164;28;25140;-72
2021/07/23 00:51:49;;;;;;;14.57;8.93;;;16.00;99.90;;;;;;5016326;28;25090;-74
2021/07/23 00:54:16;;;;;;;13.77;9.07;;;16.00;99.90;;;;;;5014087;28;25067;-71
2021/07/23 00:56:42;;;;;;;13.23;8.98;;;16.00;99.90;;;;;;5032465;28;25083;-72
2021/07/23 00:59:08;;;;;;;18.85;9.65;;;15.90;99.90;;;;;;5032995;28;25102;-74
2021/07/23 01:01:37;;;;;;;12.23;9.27;;;15.90;99.90;;;;;;5038532;28;25071;-74
2021/07/23 01:04:03;;;;;;;16.95;9.20;;;15.90;99.90;;;;;;5033701;28;25067;-73
2021/07/23 01:06:30;;;;;;;15.25;9.55;;;15.90;99.90;;;;;;5038420;28;25074;-74
2021/07/23 01:08:55;;;;;;;15.38;9.65;;;16.00;99.90;;;;;;5019396;28;25075;-72
2021/07/23 01:11:25;;;;;;;15.32;9.52;;;15.90;99.90;;;;;;5024402;28;25039;-73
2021/07/23 01:13:52;;;;;;;17.30;10.32;;;15.80;99.90;;;;;;5021883;28;25096;-72
2021/07/23 01:16:17;;;;;;;13.45;10.00;;;15.80;99.90;;;;;;5030155;28;25074;-74
2021/07/23 01:18:43;;;;;;;13.40;9.52;;;15.90;99.90;;;;;;5030696;28;25126;-72
2021/07/23 01:21:10;;;;;;;19.85;10.00;;;15.80;99.90;;;;;;5044169;28;25070;-75
2021/07/23 01:23:36;;;;;;;17.02;10.07;;;15.90;99.90;;;;;;5040628;28;25065;-70
2021/07/23 01:26:05;;;;;;;15.82;9.48;;;15.90;99.90;;;;;;5025852;28;25061;-73
2021/07/23 01:28:35;;;;;;;14.82;9.52;;;15.90;99.90;;;;;;5032409;28;25151;-71
2021/07/23 01:31:04;;;;;;;18.02;9.73;;;15.90;99.90;;;;;;5016959;28;25088;-71
2021/07/23 01:33:31;;;;;;;13.57;9.65;;;15.80;99.90;;;;;;5038484;28;25074;-72
2021/07/23 01:36:12;;;;;;;17.27;10.05;;;15.80;99.90;;;;;;5052682;28;25091;-73
2021/07/23 01:38:47;;;;;;;16.75;10.35;;;15.80;99.90;;;;;;5052073;28;25113;-74
2021/07/23 01:41:13;;;;;;;15.25;9.27;;;15.80;99.90;;;;;;5047630;28;25050;-76
2021/07/23 01:43:39;;;;;;;15.35;10.40;;;15.90;99.90;;;;;;5039309;28;25061;-75
2021/07/23 01:46:08;;;;;;;15.63;9.90;;;15.70;99.90;;;;;;5053243;28;25054;-75
2021/07/23 01:48:56;;;;;;;14.80;10.02;;;15.60;99.90;;;;;;5047217;28;25066;-73
2021/07/23 01:51:23;;;;;;;18.00;11.30;;;15.60;99.90;;;;;;5053310;28;25080;-72
2021/07/23 01:53:54;;;;;;;15.65;11.45;;;15.70;99.90;;;;;;5057163;28;25086;-71
2021/07/23 01:56:19;;;;;;;18.38;11.77;;;15.80;99.90;;;;;;5060146;28;25109;-78
2021/07/23 01:58:49;;;;;;;14.13;10.60;;;15.70;99.90;;;;;;5051729;28;25080;-73
2021/07/23 02:01:14;;;;;;;16.17;10.55;;;15.60;99.90;;;;;;5045858;28;25123;-74
2021/07/23 02:03:40;;;;;;;14.52;11.18;;;15.70;99.90;;;;;;5038655;28;25109;-72
2021/07/23 02:06:08;;;;;;;20.25;11.18;;;15.60;99.90;;;;;;5024832;28;25087;-72
2021/07/23 02:08:33;;;;;;;15.80;11.52;;;15.70;99.90;;;;;;5022064;28;25153;-73
2021/07/23 02:11:01;;;;;;;19.45;11.02;;;15.70;99.90;;;;;;5020660;28;25087;-72
2021/07/23 02:13:26;;;;;;;16.42;11.10;;;15.70;99.90;;;;;;5005924;28;25074;-72
2021/07/23 02:15:52;;;;;;;18.73;11.68;;;15.70;99.90;;;;;;5032013;28;25073;-73
2021/07/23 02:18:17;;;;;;;18.70;11.35;;;15.60;99.90;;;;;;5036172;28;25074;-74
2021/07/23 02:20:43;;;;;;;18.52;11.98;;;15.60;99.90;;;;;;5037531;28;25093;-71
2021/07/23 02:23:09;;;;;;;16.33;11.93;;;15.30;99.90;;;;;;5026594;28;25065;-72
2021/07/23 02:25:35;;;;;;;21.75;12.75;;;15.20;99.90;;;;;;5027470;28;25136;-73
2021/07/23 02:28:01;;;;;;;18.33;12.13;;;15.20;99.90;;;;;;5014812;28;24819;-72
2021/07/23 02:30:27;;;;;;;18.13;11.35;;;15.20;99.90;;;;;;5020746;28;25078;-74
2021/07/23 02:32:52;;;;;;;18.25;11.63;;;15.10;99.90;;;;;;4998985;28;25143;-71
2021/07/23 02:35:19;;;;;;;18.23;12.10;;;15.10;99.90;;;;;;5007804;28;25100;-75
2021/07/23 02:37:44;;;;;;;15.57;11.43;;;15.10;99.90;;;;;;5008551;28;25084;-72
2021/07/23 02:40:10;;;;;;;16.80;12.10;;;15.30;99.90;;;;;;5028564;28;25074;-74
2021/07/23 02:42:36;;;;;;;14.35;10.75;;;15.30;99.90;;;;;;5022468;28;25153;-74
2021/07/23 02:45:02;;;;;;;18.65;10.98;;;15.30;99.90;;;;;;5026711;28;25059;-73
2021/07/23 02:47:28;;;;;;;15.82;12.20;;;15.10;99.90;;;;;;5017449;28;25060;-69
2021/07/23 02:49:53;;;;;;;20.60;12.57;;;15.10;99.90;;;;;;5006353;28;25166;-72
2021/07/23 02:52:19;;;;;;;15.77;11.73;;;15.00;99.90;;;;;;5020533;28;25077;-73
2021/07/23 02:54:44;;;;;;;15.38;12.25;;;15.00;99.90;;;;;;5027542;28;25060;-72
2021/07/23 02:57:10;;;;;;;19.23;12.13;;;15.00;99.90;;;;;;5019574;28;25064;-75
2021/07/23 02:59:38;;;;;;;22.65;12.88;;;15.00;99.90;;;;;;5023354;28;25084;-73
2021/07/23 03:02:04;;;;;;;19.05;12.13;;;14.90;99.90;;;;;;5029273;28;25172;-73
2021/07/23 03:04:29;;;;;;;18.20;11.52;;;14.80;99.90;;;;;;5022344;28;25110;-73
2021/07/23 03:06:55;;;;;;;17.15;11.38;;;14.70;99.90;;;;;;5021610;28;25075;-73
2021/07/23 03:09:20;;;;;;;16.48;11.55;;;14.90;99.90;;;;;;5010492;28;25072;-73
2021/07/23 03:11:46;;;;;;;17.35;12.55;;;14.90;99.90;;;;;;5020928;28;25086;-70
2021/07/23 03:14:12;;;;;;;16.23;10.77;;;14.80;99.90;;;;;;5013419;28;25077;-72
2021/07/23 03:16:38;;;;;;;20.17;11.50;;;14.80;99.90;;;;;;5032405;28;25082;-74
2021/07/23 03:19:04;;;;;;;24.42;11.80;;;14.90;99.90;;;;;;5029141;28;25072;-72
2021/07/23 03:21:29;;;;;;;20.23;10.45;;;14.80;99.90;;;;;;5029747;28;25086;-72
2021/07/23 03:23:55;;;;;;;17.38;11.88;;;14.90;99.90;;;;;;5026729;28;25078;-74
2021/07/23 03:26:21;;;;;;;16.70;11.02;;;14.90;99.90;;;;;;5027479;28;25138;-74
2021/07/23 03:28:48;;;;;;;15.98;10.80;;;14.90;99.90;;;;;;5023230;28;25051;-73
2021/07/23 03:31:14;;;;;;;14.85;10.73;;;15.10;99.90;;;;;;5016909;28;25058;-70
2021/07/23 03:33:40;;;;;;;17.20;11.40;;;15.10;99.90;;;;;;5027217;28;25068;-76
2021/07/23 03:36:07;;;;;;;16.63;10.45;;;15.20;99.90;;;;;;5034132;28;25060;-73
2021/07/23 03:38:35;;;;;;;15.15;10.23;;;15.20;99.90;;;;;;5045858;28;25089;-73
2021/07/23 03:41:09;;;;;;;16.88;9.85;;;15.20;99.90;;;;;;5016306;28;25060;-72
2021/07/23 03:43:39;;;;;;;15.93;10.27;;;15.20;99.90;;;;;;5055487;28;25070;-74
2021/07/23 03:46:07;;;;;;;20.25;11.15;;;15.20;99.90;;;;;;5049867;28;25057;-73
2021/07/23 03:48:41;;;;;;;14.25;10.38;;;15.30;99.90;;;;;;5038566;28;25068;-73
2021/07/23 03:51:18;;;;;;;14.82;10.73;;;15.10;99.90;;;;;;5040340;28;25056;-75
2021/07/23 03:53:44;;;;;;;12.30;9.32;;;15.20;99.90;;;;;;5038675;28;25095;-79
2021/07/23 03:56:10;;;;;;;17.10;10.82;;;15.30;99.90;;;;;;5044984;28;25077;-72
2021/07/23 03:58:36;;;;;;;14.32;9.63;;;15.20;99.90;;;;;;5032568;28;25063;-74
2021/07/23 04:01:05;;;;;;;13.52;9.85;;;15.20;99.90;;;;;;5028848;28;25136;-76
2021/07/23 04:03:32;;;;;;;13.75;9.13;;;15.20;99.90;;;;;;5033553;28;25149;-72
2021/07/23 04:05:58;;;;;;;16.25;9.25;;;15.30;99.90;;;;;;5031879;28;25165;-72
2021/07/23 04:08:24;;;;;;;19.65;9.05;;;15.40;99.90;;;;;;5028792;28;25081;-75
2021/07/23 04:10:49;;;;;;;11.73;8.98;;;15.40;99.90;;;;;;5013288;28;25053;-74
2021/07/23 04:13:15;;;;;;;13.73;9.52;;;15.40;99.90;;;;;;5020710;28;25112;-70
2021/07/23 04:15:41;;;;;;;14.80;8.75;;;15.40;99.90;;;;;;5030308;28;25095;-71
2021/07/23 04:18:07;;;;;;;11.60;9.05;;;15.40;99.90;;;;;;5009784;28;25082;-73
2021/07/23 04:20:33;;;;;;;11.80;8.55;;;15.40;99.90;;;;;;5033598;28;25074;-73
2021/07/23 04:22:59;;;;;;;11.95;9.23;;;15.40;99.90;;;;;;5012309;28;25099;-72
2021/07/23 04:25:25;;;;;;;10.52;8.30;;;15.50;99.90;;;;;;5032559;28;25106;-71
2021/07/23 04:27:50;;;;;;;11.35;8.52;;;15.50;99.90;;;;;;5024411;28;25061;-70
2021/07/23 04:30:17;;;;;;;11.65;8.55;;;15.60;99.90;;;;;;5027013;28;25068;-71
2021/07/23 04:32:46;;;;;;;11.15;9.23;;;15.60;99.90;;;;;;5016260;28;25099;-77
2021/07/23 04:35:12;;;;;;;11.07;8.23;;;15.60;99.90;;;;;;5025578;28;25142;-70
2021/07/23 04:37:37;;;;;;;10.93;7.70;;;15.70;99.90;;;;;;5016311;28;25153;-73
2021/07/23 04:40:06;;;;;;;13.13;8.50;;;15.70;99.90;;;;;;5022500;28;25097;-73
2021/07/23 04:42:32;;;;;;;11.10;7.45;;;15.70;99.90;;;;;;5031760;28;25132;-71
2021/07/23 04:44:58;;;;;;;9.98;7.70;;;15.70;99.90;;;;;;5026469;28;25053;-73
2021/07/23 04:47:25;;;;;;;13.25;8.30;;;15.90;99.90;;;;;;5022032;28;25055;-73
2021/07/23 04:49:50;;;;;;;13.82;8.02;;;16.00;99.90;;;;;;5018918;28;25140;-73
2021/07/23 04:52:16;;;;;;;10.82;8.13;;;15.90;99.90;;;;;;5025143;28;25493;-72
2021/07/23 04:54:42;;;;;;;17.00;6.63;;;15.80;99.90;;;;;;5021304;28;25064;-73
2021/07/23 04:57:14;;;;;;;14.27;9.07;;;15.90;99.90;;;;;;5026242;28;25076;-72
2021/07/23 04:59:40;;;;;;;13.10;10.05;;;15.80;99.90;;;;;;5021819;28;25063;-73
2021/07/23 05:02:06;;;;;;;14.35;10.55;;;15.80;99.90;;;;;;5030211;28;25146;-74
2021/07/23 05:04:36;;;;;;;21.65;11.23;;;15.80;99.90;;;;;;5022340;28;25073;-72
2021/07/23 05:07:08;;;;;;;13.90;10.40;;;15.90;99.90;;;;;;5027167;28;25046;-72
2021/07/23 05:09:33;;;;;;;17.48;10.85;;;15.90;99.90;;;;;;5022511;28;25068;-75
2021/07/23 05:12:00;;;;;;;15.43;11.38;;;15.80;99.90;;;;;;5033551;28;25079;-74
2021/07/23 05:14:27;;;;;;;13.65;9.23;;;15.90;99.90;;;;;;5016807;28;25140;-75
2021/07/23 05:16:52;;;;;;;10.05;8.55;;;15.90;99.90;;;;;;5036004;28;25116;-73
2021/07/23 05:19:20;;;;;;;12.43;9.48;;;15.90;99.90;;;;;;5030467;28;25061;-73
2021/07/23 05:21:45;;;;;;;13.20;8.90;;;15.80;99.90;;;;;;5033641;28;25048;-73
2021/07/23 05:24:12;;;;;;;13.23;9.48;;;15.90;99.90;;;;;;5030327;28;25088;-73
2021/07/23 05:26:38;;;;;;;14.15;11.02;;;16.00;99.90;;;;;;5023742;28;25141;-74
2021/07/23 05:29:06;;;;;;;16.58;10.40;;;16.00;99.90;;;;;;5024090;28;25055;-73
2021/07/23 05:31:31;;;;;;;15.82;10.52;;;16.00;99.90;;;;;;5019532;28;25049;-71
2021/07/23 05:33:57;;;;;;;14.63;9.68;;;16.20;99.90;;;;;;5023625;28;25068;-73
2021/07/23 05:36:25;;;;;;;14.98;9.63;;;16.30;99.90;;;;;;5018125;28;25106;-72
2021/07/23 05:38:51;;;;;;;14.77;10.25;;;16.30;99.90;;;;;;5021488;28;25075;-73
2021/07/23 05:41:16;;;;;;;11.73;8.75;;;16.40;99.90;;;;;;5019630;28;25057;-73
2021/07/23 05:43:42;;;;;;;15.70;9.13;;;16.30;99.90;;;;;;5018172;28;25052;-71
2021/07/23 05:46:08;;;;;;;13.63;8.77;;;16.40;99.90;;;;;;5029106;28;25076;-72
2021/07/23 05:48:40;;;;;;;13.77;8.52;;;16.60;99.90;;;;;;5032285;28;25069;-73
2021/07/23 05:51:08;;;;;;;13.82;8.43;;;16.60;99.90;;;;;;5027306;28;25063;-73
2021/07/23 05:53:35;;;;;;;14.65;9.93;;;16.60;99.90;;;;;;5029545;28;25057;-74
2021/07/23 05:56:02;;;;;;;16.90;10.93;;;16.50;99.90;;;;;;5028729;28;25365;-75
2021/07/23 05:58:28;;;;;;;20.63;9.70;;;16.40;99.90;;;;;;5034828;28;25058;-72
2021/07/23 06:00:54;;;;;;;15.82;9.05;;;16.40;99.90;;;;;;5015620;28;25064;-74
2021/07/23 06:03:20;;;;;;;16.38;9.38;;;16.50;99.90;;;;;;5027777;28;25074;-74
2021/07/23 06:05:46;;;;;;;13.02;9.73;;;16.50;99.90;;;;;;5035716;28;25058;-73
2021/07/23 06:08:12;;;;;;;10.40;8.27;;;16.50;99.90;;;;;;5040783;28;25069;-74
2021/07/23 06:10:37;;;;;;;15.18;8.95;;;16.70;99.90;;;;;;5032214;28;25066;-74
2021/07/23 06:13:03;;;;;;;14.05;9.60;;;16.80;99.90;;;;;;5021479;28;25053;-75
2021/07/23 06:15:28;;;;;;;15.60;9.93;;;16.90;99.90;;;;;;5038700;28;25077;-75
2021/07/23 06:17:55;;;;;;;12.05;9.40;;;16.90;99.90;;;;;;5035139;28;25150;-72
2021/07/23 06:20:21;;;;;;;18.70;9.65;;;16.70;99.90;;;;;;5033806;28;25048;-73
2021/07/23 06:22:46;;;;;;;12.25;8.63;;;16.80;99.90;;;;;;5025552;28;25053;-73
2021/07/23 06:25:12;;;;;;;15.15;9.77;;;16.90;99.90;;;;;;5030038;28;25055;-74
2021/07/23 06:27:37;;;;;;;13.07;8.77;;;16.90;99.90;;;;;;5034104;28;25074;-73
2021/07/23 06:30:04;;;;;;;16.40;9.55;;;17.00;99.90;;;;;;5033704;28;25153;-73
2021/07/23 06:32:33;;;;;;;12.05;8.80;;;17.00;99.90;;;;;;5049716;28;25099;-73
2021/07/23 06:34:59;;;;;;;12.02;9.07;;;17.20;99.90;;;;;;5027388;28;25079;-74
2021/07/23 06:37:25;;;;;;;18.58;10.48;;;17.30;99.90;;;;;;5039339;28;25075;-71
2021/07/23 06:39:52;;;;;;;15.00;10.25;;;17.00;99.90;;;;;;5050577;28;25071;-73
2021/07/23 06:42:20;;;;;;;16.42;9.98;;;17.00;99.90;;;;;;5047862;28;25077;-73
2021/07/23 06:44:48;;;;;;;15.20;10.05;;;17.20;99.90;;;;;;5050704;28;25076;-75
2021/07/23 06:47:14;;;;;;;18.48;9.63;;;17.20;99.90;;;;;;5046559;28;25061;-73
2021/07/23 06:49:40;;;;;;;14.60;9.75;;;17.00;99.90;;;;;;5051923;28;25057;-73
2021/07/23 06:52:06;;;;;;;11.90;8.13;;;17.10;99.90;;;;;;5030086;28;25071;-74
2021/07/23 06:54:32;;;;;;;13.13;9.50;;;17.20;99.90;;;;;;5049822;28;25075;-74
2021/07/23 06:56:57;;;;;;;13.20;8.75;;;17.30;99.90;;;;;;5037578;28;25068;-72
2021/07/23 06:59:23;;;;;;;13.30;8.20;;;17.40;99.90;;;;;;5036301;28;25076;-74
2021/07/23 07:01:49;;;;;;;16.20;8.23;;;17.50;99.90;;;;;;5022931;28;25077;-75
2021/07/23 07:04:14;;;;;;;13.38;8.15;;;17.60;99.90;;;;;;5033614;28;25134;-75
2021/07/23 07:06:40;;;;;;;15.15;8.43;;;17.50;99.90;;;;;;5013684;28;25091;-74
2021/07/23 07:09:05;;;;;;;15.35;8.05;;;17.50;99.90;;;;;;5027190;28;25074;-72
2021/07/23 07:11:31;;;;;;;10.52;7.63;;;17.60;99.90;;;;;;5051650;28;25082;-75
2021/07/23 07:13:59;;;;;;;10.93;7.78;;;17.80;99.90;;;;;;5067194;28;25133;-73
2021/07/23 07:16:24;;;;;;;10.60;7.38;;;17.60;99.90;;;;;;5051764;28;25085;-73
2021/07/23 07:18:50;;;;;;;12.20;7.65;;;17.70;99.90;;;;;;5050956;28;25066;-73
2021/07/23 07:21:15;;;;;;;11.68;7.63;;;17.70;99.90;;;;;;5037145;28;25120;-72
2021/07/23 07:23:41;;;;;;;14.73;7.72;;;17.90;99.90;;;;;;5033141;28;25081;-73
2021/07/23 07:26:11;;;;;;;9.50;7.40;;;17.70;99.90;;;;;;5034836;28;25069;-75
2021/07/23 07:28:38;;;;;;;13.60;7.70;;;17.80;99.90;;;;;;5036792;28;25064;-74
2021/07/23 07:31:04;;;;;;;14.45;8.25;;;17.80;99.90;;;;;;5039619;28;25074;-74
2021/07/23 07:33:30;;;;;;;11.38;7.63;;;18.00;99.90;;;;;;5042238;28;25136;-73
2021/07/23 07:35:56;;;;;;;10.90;7.80;;;17.70;99.90;;;;;;5044346;28;25067;-73
2021/07/23 07:38:22;;;;;;;11.50;7.20;;;17.70;99.90;;;;;;5043531;28;25047;-73
2021/07/23 07:40:48;;;;;;;12.00;7.72;;;17.80;99.90;;;;;;5038853;28;25095;-72
2021/07/23 07:43:13;;;;;;;15.05;7.28;;;18.10;99.90;;;;;;5033224;28;25075;-72
2021/07/23 07:45:40;;;;;;;9.02;6.53;;;18.30;99.90;;;;;;5034691;28;25047;-77
2021/07/23 07:48:07;;;;;;;8.15;7.05;;;18.40;99.90;;;;;;5040471;28;25053;-74
2021/07/23 07:50:32;;;;;;;10.13;6.82;;;18.20;99.90;;;;;;5033834;28;25082;-73
2021/07/23 07:52:58;;;;;;;7.07;5.88;;;18.20;99.90;;;;;;5048146;28;25049;-73
2021/07/23 07:55:25;;;;;;;10.73;6.40;;;18.30;99.90;;;;;;5035844;28;25074;-73
2021/07/23 07:57:51;;;;;;;13.63;6.28;;;18.30;99.90;;;;;;5048329;28;25108;-75
2021/07/23 08:00:17;;;;;;;8.20;5.35;;;18.30;99.90;;;;;;5036546;28;25082;-73
2021/07/23 08:02:45;;;;;;;9.68;5.75;;;18.30;99.90;;;;;;5032770;28;25065;-72
2021/07/23 08:05:11;;;;;;;7.53;5.68;;;18.50;99.90;;;;;;5026805;28;25064;-74
2021/07/23 08:07:37;;;;;;;9.13;5.38;;;18.60;99.90;;;;;;5039592;28;25127;-75
2021/07/23 08:10:05;;;;;;;9.02;5.80;;;18.70;99.90;;;;;;5032732;28;25067;-73
2021/07/23 08:12:32;;;;;;;8.15;6.13;;;18.70;99.90;;;;;;5052321;28;25069;-75
2021/07/23 08:14:59;;;;;;;7.97;5.38;;;18.60;99.90;;;;;;5054286;28;25068;-76
2021/07/23 08:17:26;;;;;;;11.57;5.88;;;18.70;99.90;;;;;;5049454;28;25092;-75
2021/07/23 08:19:52;;;;;;;10.48;6.22;;;18.90;99.90;;;;;;5035405;28;25094;-74
2021/07/23 08:22:22;;;;;;;8.60;5.45;;;18.90;99.90;;;;;;5033404;28;25094;-74
2021/07/23 08:24:48;;;;;;;9.70;5.43;;;19.10;99.90;;;;;;5049785;28;25059;-74
2021/07/23 08:27:18;;;;;;;8.10;5.32;;;19.20;99.90;;;;;;5045820;28;25075;-78
2021/07/23 08:29:45;;;;;;;8.95;6.03;;;19.20;99.90;;;;;;5045431;28;25058;-74
2021/07/23 08:32:12;;;;;;;11.32;6.22;;;19.10;99.90;;;;;;5049167;28;25060;-74
2021/07/23 08:34:47;;;;;;;8.15;6.22;;;18.70;99.90;;;;;;5042742;28;25066;-74
2021/07/23 08:37:13;;;;;;;8.50;5.70;;;18.90;99.90;;;;;;5035587;28;25081;-75
2021/07/23 08:39:38;;;;;;;10.05;6.50;;;19.10;99.90;;;;;;5041282;28;25147;-76
2021/07/23 08:42:27;;;;;;;10.32;6.60;;;19.10;99.90;;;;;;5045033;28;25151;-78
2021/07/23 08:44:55;;;;;;;8.93;6.15;;;19.10;99.90;;;;;;5034100;28;25107;-75
2021/07/23 08:47:21;;;;;;;14.52;6.70;;;19.10;99.90;;;;;;5046337;28;25074;-74
2021/07/23 08:49:47;;;;;;;9.27;6.50;;;19.10;99.90;;;;;;5043289;28;25063;-76
2021/07/23 08:52:13;;;;;;;10.80;5.85;;;19.10;99.90;;;;;;5033051;28;25086;-76
2021/07/23 08:54:40;;;;;;;11.25;6.55;;;19.30;99.90;;;;;;5039874;28;25135;-77
2021/07/23 08:57:10;;;;;;;9.10;6.22;;;19.50;99.90;;;;;;5048086;28;25109;-76
2021/07/23 08:59:43;;;;;;;11.80;6.13;;;19.60;99.90;;;;;;5021131;28;25074;-75
2021/07/23 09:02:08;;;;;;;;;;;19.20;99.90;;;;;;5025768;28;25097;-76
2021/07/23 09:04:37;;;;;;;11.48;6.60;;;18.90;99.90;;;;;;5040215;28;24049;-74
2021/07/23 09:07:17;;;;;;;11.52;6.53;;;18.90;99.90;;;;;;5034126;28;25075;-76
2021/07/23 09:09:43;;;;;;;8.82;5.97;;;19.10;99.90;;;;;;5037587;28;25062;-73
2021/07/23 09:12:10;;;;;;;9.75;5.63;;;19.20;99.90;;;;;;5027693;28;25078;-75
2021/07/23 09:14:36;;;;;;;8.98;5.60;;;19.40;99.90;;;;;;5039802;28;25075;-75
2021/07/23 09:17:04;;;;;;;12.27;6.38;;;19.50;99.90;;;;;;5020155;28;25107;-76
2021/07/23 09:19:32;;;;;;;11.45;5.95;;;19.40;99.90;;;;;;5037087;28;25135;-75
2021/07/23 09:21:59;;;;;;;9.73;5.70;;;19.40;99.90;;;;;;5042321;28;25069;-77
2021/07/23 09:24:52;;;;;;;12.50;5.95;;;19.50;99.90;;;;;;5026970;28;25063;-75
2021/07/23 09:27:32;;;;;;;8.57;5.82;;;19.50;99.90;;;;;;5026226;28;25072;-77
2021/07/23 09:29:57;;;;;;;9.20;5.85;;;19.30;99.90;;;;;;5025329;28;25059;-76
2021/07/23 09:32:28;;;;;;;10.65;6.07;;;19.30;99.90;;;;;;5022163;28;25063;-78
2021/07/23 09:35:14;;;;;;;9.00;6.22;;;19.30;99.90;;;;;;5026772;28;25085;-75
2021/07/23 09:38:00;;;;;;;11.88;5.97;;;19.20;99.90;;;;;;5027243;28;25075;-76
2021/07/23 09:40:39;;;;;;;8.70;5.95;;;19.50;99.90;;;;;;5047177;28;25137;-77
2021/07/23 09:43:05;;;;;;;9.90;5.15;;;19.70;99.90;;;;;;5029629;28;25050;-74
2021/07/23 09:45:37;;;;;;;11.82;5.97;;;19.50;99.90;;;;;;5040851;28;25071;-76
2021/07/23 09:48:14;;;;;;;;;;;19.30;99.90;;;;;;5054169;28;25065;-75
2021/07/23 09:50:44;;;;;;;7.95;5.60;;;19.20;99.90;;;;;;5041007;28;24073;-75
2021/07/23 09:53:20;;;;;;;10.88;5.53;;;19.30;99.90;;;;;;5051510;28;25086;-77
2021/07/23 09:56:08;;;;;;;9.60;5.03;;;19.40;99.90;;;;;;5068140;28;25060;-76
2021/07/23 09:58:42;;;;;;;9.25;5.00;;;19.60;99.90;;;;;;5063188;28;25092;-78
2021/07/23 10:01:10;;;;;;;11.10;4.78;;;19.60;99.90;;;;;;5052646;28;25073;-76
2021/07/23 10:03:49;;;;;;;13.52;6.05;;;19.50;99.90;;;;;;5049377;28;25077;-78
2021/07/23 10:06:28;;;;;;;22.80;6.03;;;19.50;99.90;;;;;;5047353;28;25070;-76
2021/07/23 10:08:55;;;;;;;8.13;5.18;;;19.60;99.90;;;;;;5031120;28;25109;-74
2021/07/23 10:11:22;;;;;;;9.68;5.25;;;19.80;99.90;;;;;;5023644;28;25138;-72
2021/07/23 10:13:54;;;;;;;11.00;4.85;;;19.90;99.90;;;;;;5022193;28;25138;-75
2021/07/23 10:16:25;;;;;;;8.13;4.70;;;19.60;99.90;;;;;;5035972;28;25083;-78
2021/07/23 10:18:52;;;;;;;6.63;4.97;;;19.70;99.90;;;;;;5028068;28;25103;-77
2021/07/23 10:21:17;;;;;;;9.82;4.90;;;20.00;99.90;;;;;;5037002;28;25074;-74
2021/07/23 10:23:46;;;;;;;7.15;4.80;;;20.10;99.90;;;;;;5047775;28;25074;-75
2021/07/23 10:26:13;;;;;;;8.25;5.15;;;20.00;99.90;;;;;;5047121;28;25146;-75
2021/07/23 10:28:39;;;;;;;8.52;6.03;;;19.80;99.90;;;;;;5033887;28;25079;-76
2021/07/23 10:31:27;;;;;;;9.73;5.32;;;19.90;99.90;;;;;;5034548;28;25151;-75
2021/07/23 10:34:03;;;;;;;11.93;5.40;;;19.90;99.90;;;;;;5043634;28;25157;-74
2021/07/23 10:36:31;;;;;;;8.80;5.63;;;20.00;99.90;;;;;;5037236;28;25138;-74
2021/07/23 10:39:07;;;;;;;10.27;5.53;;;20.00;99.90;;;;;;5034296;28;25115;-72
2021/07/23 10:41:33;;;;;;;6.18;5.00;;;20.10;99.90;;;;;;5026363;28;25087;-76
2021/07/23 10:43:59;;;;;;;9.38;5.70;;;19.90;99.90;;;;;;5017102;28;25124;-77
2021/07/23 10:46:44;;;;;;;13.15;6.35;;;20.00;99.90;;;;;;5037212;28;25082;-76
2021/07/23 10:49:26;;;;;;;9.48;5.97;;;20.10;99.90;;;;;;5042899;28;25067;-79
2021/07/23 10:52:04;;;;;;;9.75;5.28;;;20.30;99.90;;;;;;5053684;28;25074;-76
2021/07/23 10:54:32;;;;;;;14.90;5.75;;;20.20;99.90;;;;;;5020720;28;25066;-75
2021/07/23 10:57:01;;;;;;;8.15;5.63;;;20.20;99.90;;;;;;5032284;28;25090;-75
2021/07/23 10:59:41;;;;;;;8.70;5.68;;;20.20;99.90;;;;;;5036525;28;25100;-76
2021/07/23 11:02:15;;;;;;;8.95;5.63;;;20.20;99.90;;;;;;5034168;28;25097;-74
2021/07/23 11:04:44;;;;;;;9.35;5.53;;;20.10;99.90;;;;;;5016739;28;25084;-76
2021/07/23 11:07:11;;;;;;;9.07;5.90;;;20.20;99.90;;;;;;5036787;28;25059;-76
2021/07/23 11:09:39;;;;;;;10.95;6.35;;;20.30;99.90;;;;;;5022785;28;25057;-77
2021/07/23 11:12:18;;;;;;;7.90;6.03;;;20.30;99.90;;;;;;5026584;28;25150;-75
2021/07/23 11:15:00;;;;;;;10.52;5.63;;;20.30;99.90;;;;;;5027652;28;25069;-74
2021/07/23 11:17:30;;;;;;;;;;;20.50;99.90;;;;;;5046318;28;25130;-76
2021/07/23 11:20:04;;;;;;;12.00;5.70;;;20.70;99.90;;;;;;5020947;28;25047;-77
2021/07/23 11:22:36;;;;;;;8.93;6.20;;;20.80;99.90;;;;;;5034241;28;25055;-76
2021/07/23 11:25:07;;;;;;;7.43;5.13;;;20.50;99.90;;;;;;5036237;28;25082;-77
2021/07/23 11:27:34;;;;;;;11.07;5.97;;;20.50;99.90;;;;;;5037310;28;25052;-72
2021/07/23 11:30:20;;;;;;;9.70;5.35;;;20.60;99.90;;;;;;5038857;28;25061;-76
2021/07/23 11:33:04;;;;;;;10.77;5.72;;;20.70;99.90;;;;;;5046338;28;25055;-76
2021/07/23 11:35:43;;;;;;;9.63;5.70;;;21.10;99.90;;;;;;5052284;28;25054;-76
2021/07/23 11:38:16;;;;;;;9.10;5.63;;;21.20;99.90;;;;;;5056852;28;25092;-77
2021/07/23 11:41:13;;;;;;;8.02;6.05;;;21.20;99.90;;;;;;5063290;28;25073;-77
2021/07/23 11:43:38;;;;;;;9.55;5.93;;;21.20;99.90;;;;;;5032943;22;25083;-62
2021/07/23 11:46:11;;;;;;;14.88;6.55;;;21.20;99.90;;;;;;5061178;28;25102;-61
2021/07/23 11:48:37;;;;;;;10.27;6.15;;;21.10;99.90;;;;;;5063618;28;25051;-63
2021/07/23 11:51:03;;;;;;;9.57;6.22;;;21.10;99.90;;;;;;5055984;28;25063;-63
2021/07/23 11:53:28;;;;;;;10.40;6.55;;;21.20;99.90;;;;;;5067593;28;25120;-63
2021/07/23 11:55:54;;;;;;;16.20;8.18;;;21.20;99.90;;;;;;5067809;28;25059;-63
2021/07/23 11:58:30;;;;;;;9.57;6.40;;;21.00;99.90;;;;;;5067677;28;25090;-63
2021/07/23 12:00:56;;;;;;;11.63;7.00;;;21.10;99.90;;;;;;5068123;28;25157;-64
2021/07/23 12:03:26;;;;;;;11.48;6.30;;;20.90;99.90;;;;;;5043249;28;25119;-63
2021/07/23 12:05:52;;;;;;;13.35;6.95;;;20.90;99.90;;;;;;5051433;28;25109;-63
2021/07/23 12:08:19;;;;;;;15.75;6.95;;;20.90;99.90;;;;;;5070107;28;25092;-64
2021/07/23 12:10:47;;;;;;;10.38;6.50;;;20.90;99.90;;;;;;5072244;28;25065;-61
2021/07/23 12:13:13;;;;;;;8.57;6.63;;;21.00;99.90;;;;;;5068904;28;25131;-63
2021/07/23 12:15:40;;;;;;;17.58;7.28;;;21.10;99.90;;;;;;5067815;28;25075;-66
2021/07/23 12:18:05;;;;;;;12.65;5.85;;;21.30;99.90;;;;;;5066883;28;25095;-62
2021/07/23 12:20:31;;;;;;;11.32;6.65;;;21.50;99.90;;;;;;5049948;28;25101;-63
2021/07/23 12:23:01;;;;;;;11.88;6.57;;;21.50;99.90;;;;;;5050168;28;25120;-64
2021/07/23 12:25:27;;;;;;;10.75;6.93;;;21.50;99.90;;;;;;5066260;28;25091;-63
2021/07/23 12:28:10;;;;;;;9.93;6.28;;;21.40;99.90;;;;;;5068389;28;25169;-63
2021/07/23 12:30:36;;;;;;;11.43;7.63;;;21.50;99.90;;;;;;5067130;28;25076;-63
2021/07/23 12:33:18;;;;;;;11.48;6.95;;;21.70;99.90;;;;;;5051083;28;25078;-61
2021/07/23 12:35:53;;;;;;;14.70;7.40;;;21.70;99.90;;;;;;5049442;28;25173;-62
2021/07/23 12:38:19;;;;;;;11.60;7.78;;;21.70;99.90;;;;;;5067361;28;25060;-63
2021/07/23 12:40:49;;;;;;;14.13;8.45;;;21.80;99.90;;;;;;5048860;28;25072;-64
2021/07/23 12:43:17;;;;;;;17.08;7.97;;;21.80;99.90;;;;;;5066878;28;25141;-63